IT9LCP-13 Weather Reports


Display with metric or nautical units.
time (UTC)temp
F
wind
direction
speed
MPH
gust
MPH
rain 1hr
in
rain 24hr
in
rain mn
in
humidity
%
barometer
mb
20240621130005 93 72 3.0 5.0 0.00 0.00 0.00 31 1014.1
20240621125004 93 69 2.0 5.0 0.00 0.00 0.00 30 1013.9
20240621124005 92 57 2.0 6.0 0.00 0.00 0.00 31 1014.3
20240621123004 93 32 2.0 5.0 0.00 0.00 0.00 30 1014.3
20240621122005 92 69 2.0 5.0 0.00 0.00 0.00 30 1014.4
20240621121005 92 93 2.0 5.0 0.00 0.00 0.00 31 1014.4
20240621120004 92 80 2.0 5.0 0.00 0.00 0.00 32 1014.6
20240621115005 91 83 1.0 5.0 0.00 0.00 0.00 32 1014.4
20240621114004 92 37 1.0 5.0 0.00 0.00 0.00 31 1014.5
20240621112004 90 70 2.0 5.0 0.00 0.00 0.00 33 1014.6
20240621111004 89 81 2.0 5.0 0.00 0.00 0.00 34 1014.6
20240621110005 89 75 2.0 5.0 0.00 0.00 0.00 34 1014.6
20240621105005 91 97 3.0 6.0 0.00 0.00 0.00 34 1014.6
20240621103005 91 140 2.0 5.0 0.00 0.00 0.00 36 1014.8
20240621102004 91 95 3.0 6.0 0.00 0.00 0.00 36 1014.6
20240621101004 94 89 3.0 6.0 0.00 0.00 0.00 33 1014.8
20240621100004 93 102 2.0 6.0 0.00 0.00 0.00 32 1014.7
20240621095004 93 82 2.0 6.0 0.00 0.00 0.00 33 1014.7
20240621094004 94 88 3.0 7.0 0.00 0.00 0.00 32 1014.8
20240621093005 94 120 2.0 6.0 0.00 0.00 0.00 29 1014.7
20240621092005 94 96 1.0 6.0 0.00 0.00 0.00 30 1014.5
20240621091004 94 60 2.0 3.0 0.00 0.00 0.00 30 1014.7
20240621090005 93 172 1.0 3.0 0.00 0.00 0.00 32 1014.8
20240621085004 93 55 2.0 3.0 0.00 0.00 0.00 32 1014.9
20240621084004 92 97 2.0 5.0 0.00 0.00 0.00 32 1014.8
20240621082004 92 108 2.0 5.0 0.00 0.00 0.00 32 1014.8
20240621081004 92 102 2.0 3.0 0.00 0.00 0.00 33 1015.0
20240621080004 91 101 2.0 3.0 0.00 0.00 0.00 33 1015.0
20240621075004 92 93 2.0 3.0 0.00 0.00 0.00 33 1014.9
20240621074005 90 102 2.0 5.0 0.00 0.00 0.00 34 1015.0
20240621072005 91 95 1.0 3.0 0.00 0.00 0.00 33 1015.0
20240621071004 91 84 2.0 3.0 0.00 0.00 0.00 33 1015.0
20240621070004 90 138 1.0 3.0 0.00 0.00 0.00 33 1015.1
20240621065005 91 124 1.0 2.0 0.00 0.00 0.00 33 1014.9
20240621064005 90 114 1.0 2.0 0.00 0.00 0.00 34 1015.0
20240621063004 89 142 1.0 2.0 0.00 0.00 0.00 34 1014.9
20240621062004 90 163 1.0 2.0 0.00 0.00 0.00 34 1014.9
20240621061004 90 199 1.0 1.0 0.00 0.00 0.00 35 1014.8
20240621060005 90 119 0.0 1.0 0.00 0.00 0.00 35 1014.8
20240621055004 87 257 0.0 1.0 0.00 0.00 0.00 39 1014.8
20240621054005 86 132 0.0 1.0 0.00 0.00 0.00 43 1014.8
20240621052004 83 240 0.0 1.0 0.00 0.00 0.00 45 1014.6
20240621051004 82 261 0.0 1.0 0.00 0.00 0.00 46 1014.8
20240621050004 80 299 0.0 1.0 0.00 0.00 0.00 48 1014.8
20240621044004 79 324 0.0 1.0 0.00 0.00 0.00 49 1014.5
20240621042004 78 135 0.0 1.0 0.00 0.00 0.00 50 1014.4
20240621041004 78 258 0.0 1.0 0.00 0.00 0.00 49 1014.5
20240621040004 78 270 0.0 1.0 0.00 0.00 0.00 48 1014.5
20240621035005 77 7 0.0 1.0 0.00 0.00 0.00 50 1014.3
20240621034004 77 262 0.0 1.0 0.00 0.00 0.00 50 1014.4
20240621033004 77 273 0.0 1.0 0.00 0.00 0.00 49 1014.5
20240621032004 78 261 0.0 1.0 0.00 0.00 0.00 48 1014.4
20240621031004 77 108 0.0 1.0 0.00 0.00 0.00 49 1014.2
20240621030004 78 26 0.0 1.0 0.00 0.00 0.00 48 1014.4
20240621025004 79 303 1.0 2.0 0.00 0.00 0.00 47 1014.3
20240621024005 78 304 1.0 1.0 0.00 0.00 0.00 48 1014.3
20240621023004 78 250 0.0 1.0 0.00 0.00 0.00 49 1014.4
20240621022005 79 269 0.0 1.0 0.00 0.00 0.00 47 1014.6
20240621021004 80 338 1.0 1.0 0.00 0.00 0.00 44 1014.6
20240621020004 80 318 1.0 1.0 0.00 0.00 0.00 44 1014.6
20240621014004 79 314 0.0 1.0 0.00 0.00 0.00 46 1014.4
20240621013004 78 287 0.0 1.0 0.00 0.00 0.00 49 1014.4
20240621012004 79 283 0.0 1.0 0.00 0.00 0.00 48 1014.6
20240621011004 79 277 1.0 1.0 0.00 0.00 0.00 47 1014.3
20240621010004 79 300 0.0 1.0 0.00 0.00 0.00 47 1014.6
20240621004005 79 262 0.0 1.0 0.00 0.00 0.00 48 1014.8
20240621003005 79 298 0.0 1.0 0.00 0.00 0.00 49 1014.6
20240621001006 80 283 1.0 1.0 0.00 0.00 0.00 47 1014.9
20240621000005 80 308 1.0 1.0 0.00 0.00 0.00 47 1014.9
20240620235005 80 281 1.0 1.0 0.00 0.00 0.00 46 1015.0
20240620234005 80 56 0.0 1.0 0.00 0.00 0.00 46 1015.1
20240620233005 80 223 1.0 1.0 0.00 0.00 0.00 46 1014.9
20240620232005 80 231 1.0 1.0 0.00 0.00 0.00 45 1015.2
20240620231005 80 256 1.0 1.0 0.00 0.00 0.00 45 1015.2
20240620230005 81 249 1.0 1.0 0.00 0.00 0.00 45 1015.6
20240620225005 80 273 0.0 1.0 0.00 0.00 0.00 46 1015.5
20240620224005 81 258 0.0 1.0 0.00 0.00 0.00 45 1015.5
20240620223005 81 299 0.0 1.0 0.00 0.00 0.00 47 1015.6
20240620222005 81 339 0.0 1.0 0.00 0.00 0.00 47 1015.7
20240620221005 81 76 0.0 1.0 0.00 0.00 0.00 46 1015.7
20240620220005 82 117 0.0 1.0 0.00 0.00 0.00 46 1015.7
20240620215005 83 44 0.0 2.0 0.00 0.00 0.00 43 1015.8
20240620214005 84 71 0.0 1.0 0.00 0.00 0.00 40 1015.7
20240620213005 85 125 1.0 1.0 0.00 0.00 0.00 37 1015.7
20240620212005 85 306 1.0 2.0 0.00 0.00 0.00 37 1015.8
20240620211005 85 248 1.0 2.0 0.00 0.00 0.00 37 1015.6
20240620205005 86 231 1.0 2.0 0.00 0.00 0.00 37 1015.9
20240620204005 85 315 0.0 1.0 0.00 0.00 0.00 37 1016.0
20240620203005 85 221 0.0 1.0 0.00 0.00 0.00 38 1015.9
20240620202005 85 302 0.0 1.0 0.00 0.00 0.00 37 1015.9
20240620201005 85 211 0.0 1.0 0.00 0.00 0.00 37 1016.0
20240620200005 85 244 0.0 1.0 0.00 0.00 0.00 37 1015.9
20240620195005 85 229 0.0 1.0 0.00 0.00 0.00 39 1016.0
20240620194005 85 266 0.0 1.0 0.00 0.00 0.00 39 1015.9
20240620193005 86 255 0.0 1.0 0.00 0.00 0.00 39 1015.8
20240620192005 86 248 1.0 1.0 0.00 0.00 0.00 38 1015.7
20240620191004 87 258 0.0 1.0 0.00 0.00 0.00 36 1015.8
20240620185005 87 273 0.0 1.0 0.00 0.00 0.00 36 1015.6
20240620184004 87 299 0.0 1.0 0.00 0.00 0.00 35 1015.7
20240620183005 88 153 0.0 1.0 0.00 0.00 0.00 35 1015.7
20240620182005 88 122 1.0 1.0 0.00 0.00 0.00 34 1015.7
20240620181005 89 108 1.0 1.0 0.00 0.00 0.00 33 1015.7
20240620180006 90 117 1.0 1.0 0.00 0.00 0.00 32 1015.7
20240620175004 90 87 0.0 1.0 0.00 0.00 0.00 32 1015.5
20240620174005 90 174 0.0 1.0 0.00 0.00 0.00 32 1015.6
20240620173005 91 127 0.0 1.0 0.00 0.00 0.00 31 1015.5
20240620172005 91 114 1.0 1.0 0.00 0.00 0.00 31 1015.7
20240620170005 91 85 1.0 2.0 0.00 0.00 0.00 31 1015.4
20240620165004 92 92 0.0 2.0 0.00 0.00 0.00 30 1015.6
20240620164004 92 72 1.0 2.0 0.00 0.00 0.00 30 1015.7
20240620163005 92 356 0.0 2.0 0.00 0.00 0.00 30 1015.6
20240620162004 92 73 1.0 3.0 0.00 0.00 0.00 29 1015.6
20240620160005 92 88 2.0 2.0 0.00 0.00 0.00 28 1015.6
20240620155005 92 15 1.0 3.0 0.00 0.00 0.00 28 1015.5
20240620154005 92 109 1.0 3.0 0.00 0.00 0.00 28 1015.5
20240620152005 93 36 1.0 3.0 0.00 0.00 0.00 28 1015.6
20240620151004 92 54 1.0 3.0 0.00 0.00 0.00 29 1015.5
20240620150004 92 145 1.0 3.0 0.00 0.00 0.00 29 1015.7
20240620145005 92 155 1.0 3.0 0.00 0.00 0.00 28 1015.6
20240620144005 92 97 2.0 3.0 0.00 0.00 0.00 28 1015.8
20240620143004 92 89 1.0 2.0 0.00 0.00 0.00 28 1015.7
20240620142005 92 85 1.0 2.0 0.00 0.00 0.00 28 1015.7
20240620141004 91 84 2.0 3.0 0.00 0.00 0.00 29 1015.9
20240620140004 91 78 1.0 3.0 0.00 0.00 0.00 28 1015.8
20240620135005 92 120 1.0 3.0 0.00 0.00 0.00 27 1015.7
20240620134005 90 81 2.0 3.0 0.00 0.00 0.00 29 1015.9
20240620133005 91 136 1.0 3.0 0.00 0.00 0.00 30 1015.8
20240620132005 91 155 1.0 3.0 0.00 0.00 0.00 32 1015.8